sensor_id;sensor_type;location;lat;lon;timestamp;P1;durP1;ratioP1;P2;durP2;ratioP2
63189;SDS011;49286;44.460;26.114;2022-12-07T00:00:48;42.53;;;20.88;;
63189;SDS011;49286;44.460;26.114;2022-12-07T00:03:13;35.30;;;19.52;;
63189;SDS011;49286;44.460;26.114;2022-12-07T00:05:39;33.92;;;20.52;;
63189;SDS011;49286;44.460;26.114;2022-12-07T00:08:04;31.40;;;17.15;;
63189;SDS011;49286;44.460;26.114;2022-12-07T00:10:29;38.28;;;19.17;;
63189;SDS011;49286;44.460;26.114;2022-12-07T00:12:55;38.22;;;18.15;;
63189;SDS011;49286;44.460;26.114;2022-12-07T00:15:21;34.38;;;18.15;;
63189;SDS011;49286;44.460;26.114;2022-12-07T00:17:46;36.50;;;16.83;;
63189;SDS011;49286;44.460;26.114;2022-12-07T00:20:11;42.58;;;20.52;;
63189;SDS011;49286;44.460;26.114;2022-12-07T00:22:37;31.65;;;16.70;;
63189;SDS011;49286;44.460;26.114;2022-12-07T00:25:02;37.80;;;19.70;;
63189;SDS011;49286;44.460;26.114;2022-12-07T00:27:31;40.88;;;20.00;;
63189;SDS011;49286;44.460;26.114;2022-12-07T00:29:56;34.53;;;20.38;;
63189;SDS011;49286;44.460;26.114;2022-12-07T00:32:22;34.72;;;21.73;;
63189;SDS011;49286;44.460;26.114;2022-12-07T00:34:47;28.83;;;18.55;;
63189;SDS011;49286;44.460;26.114;2022-12-07T00:37:13;29.75;;;19.00;;
63189;SDS011;49286;44.460;26.114;2022-12-07T00:39:38;26.48;;;17.58;;
63189;SDS011;49286;44.460;26.114;2022-12-07T00:42:04;31.30;;;17.98;;
63189;SDS011;49286;44.460;26.114;2022-12-07T00:44:29;29.38;;;16.40;;
63189;SDS011;49286;44.460;26.114;2022-12-07T00:46:55;27.27;;;17.73;;
63189;SDS011;49286;44.460;26.114;2022-12-07T00:49:20;32.72;;;17.95;;
63189;SDS011;49286;44.460;26.114;2022-12-07T00:51:47;33.08;;;19.00;;
63189;SDS011;49286;44.460;26.114;2022-12-07T00:54:13;27.42;;;15.68;;
63189;SDS011;49286;44.460;26.114;2022-12-07T00:56:40;38.60;;;16.02;;
63189;SDS011;49286;44.460;26.114;2022-12-07T00:59:06;43.42;;;19.15;;
63189;SDS011;49286;44.460;26.114;2022-12-07T01:01:34;28.80;;;14.48;;
63189;SDS011;49286;44.460;26.114;2022-12-07T01:04:01;39.05;;;19.63;;
63189;SDS011;49286;44.460;26.114;2022-12-07T01:06:28;24.15;;;15.25;;
63189;SDS011;49286;44.460;26.114;2022-12-07T01:08:54;31.45;;;17.80;;
63189;SDS011;49286;44.460;26.114;2022-12-07T01:11:21;28.52;;;16.80;;
63189;SDS011;49286;44.460;26.114;2022-12-07T01:13:50;31.52;;;16.35;;
63189;SDS011;49286;44.460;26.114;2022-12-07T01:16:16;30.65;;;16.77;;
63189;SDS011;49286;44.460;26.114;2022-12-07T01:18:48;36.40;;;18.58;;
63189;SDS011;49286;44.460;26.114;2022-12-07T01:21:16;36.53;;;16.80;;
63189;SDS011;49286;44.460;26.114;2022-12-07T01:23:43;32.60;;;18.55;;
63189;SDS011;49286;44.460;26.114;2022-12-07T01:26:11;36.78;;;18.50;;
63189;SDS011;49286;44.460;26.114;2022-12-07T01:28:37;28.23;;;15.23;;
63189;SDS011;49286;44.460;26.114;2022-12-07T01:31:07;31.25;;;17.90;;
63189;SDS011;49286;44.460;26.114;2022-12-07T01:33:36;35.50;;;16.83;;
63189;SDS011;49286;44.460;26.114;2022-12-07T01:36:04;26.55;;;13.90;;
63189;SDS011;49286;44.460;26.114;2022-12-07T01:38:37;31.13;;;17.63;;
63189;SDS011;49286;44.460;26.114;2022-12-07T01:41:03;37.20;;;19.20;;
63189;SDS011;49286;44.460;26.114;2022-12-07T01:43:30;31.13;;;16.75;;
63189;SDS011;49286;44.460;26.114;2022-12-07T01:45:57;30.92;;;17.80;;
63189;SDS011;49286;44.460;26.114;2022-12-07T01:48:26;35.17;;;16.90;;
63189;SDS011;49286;44.460;26.114;2022-12-07T01:50:56;32.83;;;18.33;;
63189;SDS011;49286;44.460;26.114;2022-12-07T01:53:24;37.80;;;18.73;;
63189;SDS011;49286;44.460;26.114;2022-12-07T01:55:53;35.15;;;20.10;;
63189;SDS011;49286;44.460;26.114;2022-12-07T01:58:20;35.25;;;18.75;;
63189;SDS011;49286;44.460;26.114;2022-12-07T02:00:49;33.75;;;17.52;;
63189;SDS011;49286;44.460;26.114;2022-12-07T02:03:17;35.90;;;19.27;;
63189;SDS011;49286;44.460;26.114;2022-12-07T02:05:47;32.03;;;20.02;;
63189;SDS011;49286;44.460;26.114;2022-12-07T02:08:14;34.90;;;19.92;;
63189;SDS011;49286;44.460;26.114;2022-12-07T02:10:40;39.00;;;20.63;;
63189;SDS011;49286;44.460;26.114;2022-12-07T02:21:45;36.90;;;20.00;;
63189;SDS011;49286;44.460;26.114;2022-12-07T02:27:37;31.52;;;15.05;;
63189;SDS011;49286;44.460;26.114;2022-12-07T02:30:14;33.53;;;16.17;;
63189;SDS011;49286;44.460;26.114;2022-12-07T02:35:28;35.15;;;17.63;;
63189;SDS011;49286;44.460;26.114;2022-12-07T02:38:02;36.80;;;20.23;;
63189;SDS011;49286;44.460;26.114;2022-12-07T02:41:20;29.42;;;18.50;;
63189;SDS011;49286;44.460;26.114;2022-12-07T02:43:37;34.45;;;18.50;;
63189;SDS011;49286;44.460;26.114;2022-12-07T02:46:14;33.37;;;16.97;;
63189;SDS011;49286;44.460;26.114;2022-12-07T02:48:45;31.17;;;16.95;;
63189;SDS011;49286;44.460;26.114;2022-12-07T02:51:12;27.08;;;16.75;;
63189;SDS011;49286;44.460;26.114;2022-12-07T03:01:55;32.30;;;18.60;;
63189;SDS011;49286;44.460;26.114;2022-12-07T03:12:18;32.20;;;15.05;;
63189;SDS011;49286;44.460;26.114;2022-12-07T03:14:55;31.52;;;15.70;;
63189;SDS011;49286;44.460;26.114;2022-12-07T03:17:27;27.17;;;14.90;;
63189;SDS011;49286;44.460;26.114;2022-12-07T03:19:58;33.47;;;16.67;;
63189;SDS011;49286;44.460;26.114;2022-12-07T03:22:25;25.38;;;13.85;;
63189;SDS011;49286;44.460;26.114;2022-12-07T03:25:00;25.73;;;17.08;;
63189;SDS011;49286;44.460;26.114;2022-12-07T03:27:38;33.97;;;15.98;;
63189;SDS011;49286;44.460;26.114;2022-12-07T03:30:08;24.70;;;14.50;;
63189;SDS011;49286;44.460;26.114;2022-12-07T03:32:50;24.67;;;16.50;;
63189;SDS011;49286;44.460;26.114;2022-12-07T03:35:25;24.58;;;14.02;;
63189;SDS011;49286;44.460;26.114;2022-12-07T03:38:00;33.80;;;18.60;;
63189;SDS011;49286;44.460;26.114;2022-12-07T03:40:47;26.77;;;15.60;;
63189;SDS011;49286;44.460;26.114;2022-12-07T03:43:14;25.02;;;12.88;;
63189;SDS011;49286;44.460;26.114;2022-12-07T03:45:48;24.48;;;14.05;;
63189;SDS011;49286;44.460;26.114;2022-12-07T03:48:36;28.13;;;15.77;;
63189;SDS011;49286;44.460;26.114;2022-12-07T03:53:46;26.40;;;16.88;;
63189;SDS011;49286;44.460;26.114;2022-12-07T03:56:16;29.88;;;16.60;;
63189;SDS011;49286;44.460;26.114;2022-12-07T03:58:43;26.30;;;15.20;;
63189;SDS011;49286;44.460;26.114;2022-12-07T04:01:09;27.95;;;15.15;;
63189;SDS011;49286;44.460;26.114;2022-12-07T04:03:35;30.38;;;16.48;;
63189;SDS011;49286;44.460;26.114;2022-12-07T04:06:00;29.45;;;16.42;;
63189;SDS011;49286;44.460;26.114;2022-12-07T04:08:26;23.02;;;13.68;;
63189;SDS011;49286;44.460;26.114;2022-12-07T04:10:51;32.67;;;16.38;;
63189;SDS011;49286;44.460;26.114;2022-12-07T04:13:18;21.45;;;13.25;;
63189;SDS011;49286;44.460;26.114;2022-12-07T04:15:44;30.13;;;16.20;;
63189;SDS011;49286;44.460;26.114;2022-12-07T04:18:09;25.02;;;14.85;;
63189;SDS011;49286;44.460;26.114;2022-12-07T04:20:35;24.42;;;15.25;;
63189;SDS011;49286;44.460;26.114;2022-12-07T04:23:00;25.55;;;14.02;;
63189;SDS011;49286;44.460;26.114;2022-12-07T04:25:26;24.83;;;15.63;;
63189;SDS011;49286;44.460;26.114;2022-12-07T04:27:51;26.75;;;15.05;;
63189;SDS011;49286;44.460;26.114;2022-12-07T04:30:17;28.38;;;15.85;;
63189;SDS011;49286;44.460;26.114;2022-12-07T04:32:43;24.08;;;15.77;;
63189;SDS011;49286;44.460;26.114;2022-12-07T04:35:08;24.67;;;14.95;;
63189;SDS011;49286;44.460;26.114;2022-12-07T04:37:34;21.50;;;12.38;;
63189;SDS011;49286;44.460;26.114;2022-12-07T04:39:59;22.75;;;14.70;;
63189;SDS011;49286;44.460;26.114;2022-12-07T04:42:25;26.02;;;14.50;;
63189;SDS011;49286;44.460;26.114;2022-12-07T04:44:51;22.67;;;13.40;;
63189;SDS011;49286;44.460;26.114;2022-12-07T04:47:16;23.80;;;14.82;;
63189;SDS011;49286;44.460;26.114;2022-12-07T04:49:42;28.08;;;14.45;;
63189;SDS011;49286;44.460;26.114;2022-12-07T04:52:07;21.75;;;13.45;;
63189;SDS011;49286;44.460;26.114;2022-12-07T04:54:33;24.25;;;13.63;;
63189;SDS011;49286;44.460;26.114;2022-12-07T04:56:58;22.05;;;13.75;;
63189;SDS011;49286;44.460;26.114;2022-12-07T04:59:24;22.35;;;15.25;;
63189;SDS011;49286;44.460;26.114;2022-12-07T05:01:49;21.08;;;12.52;;
63189;SDS011;49286;44.460;26.114;2022-12-07T05:04:15;23.23;;;16.35;;
63189;SDS011;49286;44.460;26.114;2022-12-07T05:06:41;24.65;;;15.25;;
63189;SDS011;49286;44.460;26.114;2022-12-07T05:09:07;22.25;;;12.38;;
63189;SDS011;49286;44.460;26.114;2022-12-07T05:11:32;25.45;;;13.73;;
63189;SDS011;49286;44.460;26.114;2022-12-07T05:14:11;28.00;;;14.73;;
63189;SDS011;49286;44.460;26.114;2022-12-07T05:16:37;22.77;;;13.70;;
63189;SDS011;49286;44.460;26.114;2022-12-07T05:19:03;22.77;;;13.85;;
63189;SDS011;49286;44.460;26.114;2022-12-07T05:21:29;22.75;;;13.88;;
63189;SDS011;49286;44.460;26.114;2022-12-07T05:23:55;24.25;;;13.70;;
63189;SDS011;49286;44.460;26.114;2022-12-07T05:26:20;27.98;;;14.73;;
63189;SDS011;49286;44.460;26.114;2022-12-07T05:28:49;25.10;;;13.98;;
63189;SDS011;49286;44.460;26.114;2022-12-07T05:31:16;27.33;;;15.00;;
63189;SDS011;49286;44.460;26.114;2022-12-07T05:33:41;24.67;;;14.63;;
63189;SDS011;49286;44.460;26.114;2022-12-07T05:36:07;28.08;;;15.38;;
63189;SDS011;49286;44.460;26.114;2022-12-07T05:38:33;22.88;;;13.88;;
63189;SDS011;49286;44.460;26.114;2022-12-07T05:41:02;28.70;;;14.98;;
63189;SDS011;49286;44.460;26.114;2022-12-07T05:43:29;28.63;;;14.27;;
63189;SDS011;49286;44.460;26.114;2022-12-07T05:45:54;27.38;;;13.80;;
63189;SDS011;49286;44.460;26.114;2022-12-07T05:48:20;23.10;;;14.85;;
63189;SDS011;49286;44.460;26.114;2022-12-07T05:50:49;22.65;;;14.23;;
63189;SDS011;49286;44.460;26.114;2022-12-07T05:53:15;23.08;;;11.93;;
63189;SDS011;49286;44.460;26.114;2022-12-07T05:55:40;25.58;;;13.45;;
63189;SDS011;49286;44.460;26.114;2022-12-07T05:58:06;22.80;;;13.57;;
63189;SDS011;49286;44.460;26.114;2022-12-07T06:00:50;28.08;;;15.32;;
63189;SDS011;49286;44.460;26.114;2022-12-07T06:03:15;30.27;;;16.42;;
63189;SDS011;49286;44.460;26.114;2022-12-07T06:05:41;26.85;;;16.00;;
63189;SDS011;49286;44.460;26.114;2022-12-07T06:08:06;29.85;;;14.65;;
63189;SDS011;49286;44.460;26.114;2022-12-07T06:10:32;25.60;;;14.35;;
63189;SDS011;49286;44.460;26.114;2022-12-07T06:12:58;25.05;;;14.30;;
63189;SDS011;49286;44.460;26.114;2022-12-07T06:15:23;28.90;;;15.35;;
63189;SDS011;49286;44.460;26.114;2022-12-07T06:17:49;25.35;;;14.05;;
63189;SDS011;49286;44.460;26.114;2022-12-07T06:20:14;30.33;;;18.45;;
63189;SDS011;49286;44.460;26.114;2022-12-07T06:22:40;32.35;;;16.92;;
63189;SDS011;49286;44.460;26.114;2022-12-07T06:25:05;28.73;;;17.67;;
63189;SDS011;49286;44.460;26.114;2022-12-07T06:27:32;24.15;;;16.00;;
63189;SDS011;49286;44.460;26.114;2022-12-07T06:29:57;30.25;;;18.27;;
63189;SDS011;49286;44.460;26.114;2022-12-07T06:32:23;34.38;;;17.67;;
63189;SDS011;49286;44.460;26.114;2022-12-07T06:34:49;34.72;;;15.50;;
63189;SDS011;49286;44.460;26.114;2022-12-07T06:37:14;27.70;;;14.15;;
63189;SDS011;49286;44.460;26.114;2022-12-07T06:39:40;28.15;;;14.57;;
63189;SDS011;49286;44.460;26.114;2022-12-07T06:42:05;28.67;;;15.90;;
63189;SDS011;49286;44.460;26.114;2022-12-07T06:44:32;35.67;;;18.30;;
63189;SDS011;49286;44.460;26.114;2022-12-07T06:46:58;35.47;;;17.67;;
63189;SDS011;49286;44.460;26.114;2022-12-07T06:49:23;25.88;;;14.90;;
63189;SDS011;49286;44.460;26.114;2022-12-07T06:51:48;25.73;;;15.45;;
63189;SDS011;49286;44.460;26.114;2022-12-07T06:54:15;26.42;;;13.27;;
63189;SDS011;49286;44.460;26.114;2022-12-07T06:56:41;27.30;;;15.57;;
63189;SDS011;49286;44.460;26.114;2022-12-07T06:59:06;32.40;;;18.50;;
63189;SDS011;49286;44.460;26.114;2022-12-07T07:01:33;31.45;;;16.55;;
63189;SDS011;49286;44.460;26.114;2022-12-07T07:04:00;32.72;;;16.70;;
63189;SDS011;49286;44.460;26.114;2022-12-07T07:06:26;35.30;;;15.02;;
63189;SDS011;49286;44.460;26.114;2022-12-07T07:08:51;27.98;;;16.00;;
63189;SDS011;49286;44.460;26.114;2022-12-07T07:11:17;26.15;;;16.88;;
63189;SDS011;49286;44.460;26.114;2022-12-07T07:13:42;39.70;;;17.95;;
63189;SDS011;49286;44.460;26.114;2022-12-07T07:16:08;30.58;;;16.92;;
63189;SDS011;49286;44.460;26.114;2022-12-07T07:18:34;23.42;;;14.65;;
63189;SDS011;49286;44.460;26.114;2022-12-07T07:20:59;37.95;;;17.63;;
63189;SDS011;49286;44.460;26.114;2022-12-07T07:23:26;28.58;;;18.30;;
63189;SDS011;49286;44.460;26.114;2022-12-07T07:25:51;30.15;;;18.73;;
63189;SDS011;49286;44.460;26.114;2022-12-07T07:28:17;31.15;;;16.58;;
63189;SDS011;49286;44.460;26.114;2022-12-07T07:30:42;29.38;;;14.40;;
63189;SDS011;49286;44.460;26.114;2022-12-07T07:33:09;37.38;;;20.23;;
63189;SDS011;49286;44.460;26.114;2022-12-07T07:35:34;30.48;;;15.55;;
63189;SDS011;49286;44.460;26.114;2022-12-07T07:38:00;37.90;;;18.48;;
63189;SDS011;49286;44.460;26.114;2022-12-07T07:40:26;29.80;;;15.32;;
63189;SDS011;49286;44.460;26.114;2022-12-07T07:42:52;32.75;;;15.82;;
63189;SDS011;49286;44.460;26.114;2022-12-07T07:45:23;23.60;;;13.93;;
63189;SDS011;49286;44.460;26.114;2022-12-07T07:47:50;30.50;;;16.98;;
63189;SDS011;49286;44.460;26.114;2022-12-07T07:50:15;52.83;;;18.50;;
63189;SDS011;49286;44.460;26.114;2022-12-07T07:52:41;26.52;;;16.63;;
63189;SDS011;49286;44.460;26.114;2022-12-07T07:55:07;27.05;;;14.80;;
63189;SDS011;49286;44.460;26.114;2022-12-07T07:57:34;24.73;;;17.27;;
63189;SDS011;49286;44.460;26.114;2022-12-07T08:00:00;32.28;;;15.80;;
63189;SDS011;49286;44.460;26.114;2022-12-07T08:05:01;32.60;;;17.75;;
63189;SDS011;49286;44.460;26.114;2022-12-07T08:07:27;29.02;;;15.13;;
63189;SDS011;49286;44.460;26.114;2022-12-07T08:09:54;32.42;;;15.85;;
63189;SDS011;49286;44.460;26.114;2022-12-07T08:12:19;50.92;;;18.98;;
63189;SDS011;49286;44.460;26.114;2022-12-07T08:14:45;72.55;;;19.65;;
63189;SDS011;49286;44.460;26.114;2022-12-07T08:17:10;35.63;;;18.08;;
63189;SDS011;49286;44.460;26.114;2022-12-07T08:19:37;27.90;;;14.77;;
63189;SDS011;49286;44.460;26.114;2022-12-07T08:22:03;24.20;;;15.23;;
63189;SDS011;49286;44.460;26.114;2022-12-07T08:24:28;30.92;;;18.05;;
63189;SDS011;49286;44.460;26.114;2022-12-07T08:26:56;26.88;;;15.75;;
63189;SDS011;49286;44.460;26.114;2022-12-07T08:29:22;26.38;;;15.07;;
63189;SDS011;49286;44.460;26.114;2022-12-07T08:31:48;30.70;;;17.88;;
63189;SDS011;49286;44.460;26.114;2022-12-07T08:34:13;26.85;;;17.08;;
63189;SDS011;49286;44.460;26.114;2022-12-07T08:36:39;24.58;;;13.93;;
63189;SDS011;49286;44.460;26.114;2022-12-07T08:39:04;36.25;;;14.80;;
63189;SDS011;49286;44.460;26.114;2022-12-07T08:41:30;29.58;;;15.35;;
63189;SDS011;49286;44.460;26.114;2022-12-07T08:43:56;24.45;;;15.10;;
63189;SDS011;49286;44.460;26.114;2022-12-07T08:46:25;34.05;;;17.77;;
63189;SDS011;49286;44.460;26.114;2022-12-07T08:49:02;22.88;;;16.25;;
63189;SDS011;49286;44.460;26.114;2022-12-07T08:51:36;24.40;;;14.57;;
63189;SDS011;49286;44.460;26.114;2022-12-07T08:54:04;37.08;;;15.57;;
63189;SDS011;49286;44.460;26.114;2022-12-07T08:56:34;28.10;;;15.63;;
63189;SDS011;49286;44.460;26.114;2022-12-07T08:59:00;27.08;;;18.85;;
63189;SDS011;49286;44.460;26.114;2022-12-07T09:01:26;24.73;;;14.02;;
63189;SDS011;49286;44.460;26.114;2022-12-07T09:03:52;31.67;;;15.95;;
63189;SDS011;49286;44.460;26.114;2022-12-07T09:06:17;28.85;;;16.30;;
63189;SDS011;49286;44.460;26.114;2022-12-07T09:08:45;25.63;;;14.43;;
63189;SDS011;49286;44.460;26.114;2022-12-07T09:11:14;35.92;;;18.60;;
63189;SDS011;49286;44.460;26.114;2022-12-07T09:13:40;36.45;;;14.40;;
63189;SDS011;49286;44.460;26.114;2022-12-07T09:16:05;29.15;;;16.58;;
63189;SDS011;49286;44.460;26.114;2022-12-07T09:18:31;23.23;;;14.65;;
63189;SDS011;49286;44.460;26.114;2022-12-07T09:20:56;24.98;;;14.63;;
63189;SDS011;49286;44.460;26.114;2022-12-07T09:23:22;29.95;;;15.43;;
63189;SDS011;49286;44.460;26.114;2022-12-07T09:25:48;23.92;;;17.33;;
63189;SDS011;49286;44.460;26.114;2022-12-07T09:28:13;24.17;;;13.90;;
63189;SDS011;49286;44.460;26.114;2022-12-07T09:30:39;34.40;;;18.73;;
63189;SDS011;49286;44.460;26.114;2022-12-07T09:33:09;29.55;;;16.67;;
63189;SDS011;49286;44.460;26.114;2022-12-07T09:35:35;29.30;;;16.52;;
63189;SDS011;49286;44.460;26.114;2022-12-07T09:38:00;25.15;;;14.93;;
63189;SDS011;49286;44.460;26.114;2022-12-07T09:40:26;26.55;;;16.48;;
63189;SDS011;49286;44.460;26.114;2022-12-07T09:42:53;22.48;;;13.48;;
63189;SDS011;49286;44.460;26.114;2022-12-07T09:45:22;25.27;;;16.88;;
63189;SDS011;49286;44.460;26.114;2022-12-07T09:47:51;26.98;;;16.23;;
63189;SDS011;49286;44.460;26.114;2022-12-07T09:50:18;29.35;;;16.75;;
63189;SDS011;49286;44.460;26.114;2022-12-07T09:52:47;22.48;;;14.80;;
63189;SDS011;49286;44.460;26.114;2022-12-07T09:55:20;42.15;;;16.35;;
63189;SDS011;49286;44.460;26.114;2022-12-07T09:57:49;25.13;;;15.57;;
63189;SDS011;49286;44.460;26.114;2022-12-07T10:00:18;22.15;;;13.38;;
63189;SDS011;49286;44.460;26.114;2022-12-07T10:02:55;30.33;;;16.92;;
63189;SDS011;49286;44.460;26.114;2022-12-07T10:08:12;26.02;;;16.77;;
63189;SDS011;49286;44.460;26.114;2022-12-07T10:10:39;22.48;;;15.75;;
63189;SDS011;49286;44.460;26.114;2022-12-07T10:13:06;23.65;;;15.25;;
63189;SDS011;49286;44.460;26.114;2022-12-07T10:15:48;27.58;;;16.70;;
63189;SDS011;49286;44.460;26.114;2022-12-07T10:20:46;34.38;;;16.35;;
63189;SDS011;49286;44.460;26.114;2022-12-07T10:23:16;37.22;;;18.38;;
63189;SDS011;49286;44.460;26.114;2022-12-07T10:25:43;25.92;;;14.82;;
63189;SDS011;49286;44.460;26.114;2022-12-07T10:28:17;35.72;;;19.95;;
63189;SDS011;49286;44.460;26.114;2022-12-07T10:36:15;29.60;;;15.43;;
63189;SDS011;49286;44.460;26.114;2022-12-07T10:38:49;28.77;;;16.38;;
63189;SDS011;49286;44.460;26.114;2022-12-07T10:41:25;30.40;;;17.23;;
63189;SDS011;49286;44.460;26.114;2022-12-07T10:43:52;29.05;;;16.70;;
63189;SDS011;49286;44.460;26.114;2022-12-07T10:46:29;36.17;;;21.05;;
63189;SDS011;49286;44.460;26.114;2022-12-07T10:54:26;30.45;;;19.80;;
63189;SDS011;49286;44.460;26.114;2022-12-07T11:00:21;32.20;;;19.63;;
63189;SDS011;49286;44.460;26.114;2022-12-07T11:11:38;38.58;;;22.20;;
63189;SDS011;49286;44.460;26.114;2022-12-07T11:14:26;33.80;;;18.85;;
63189;SDS011;49286;44.460;26.114;2022-12-07T11:33:49;31.20;;;18.25;;
63189;SDS011;49286;44.460;26.114;2022-12-07T11:36:42;34.95;;;18.48;;
63189;SDS011;49286;44.460;26.114;2022-12-07T11:41:39;37.35;;;20.15;;
63189;SDS011;49286;44.460;26.114;2022-12-07T11:47:17;40.72;;;21.05;;
63189;SDS011;49286;44.460;26.114;2022-12-07T11:53:05;29.10;;;16.48;;
63189;SDS011;49286;44.460;26.114;2022-12-07T12:03:51;35.38;;;16.13;;
63189;SDS011;49286;44.460;26.114;2022-12-07T12:06:21;30.38;;;17.42;;
63189;SDS011;49286;44.460;26.114;2022-12-07T12:22:21;25.08;;;17.33;;
63189;SDS011;49286;44.460;26.114;2022-12-07T12:24:55;28.73;;;17.15;;
63189;SDS011;49286;44.460;26.114;2022-12-07T12:27:25;28.50;;;15.20;;
63189;SDS011;49286;44.460;26.114;2022-12-07T12:29:55;20.93;;;15.63;;
63189;SDS011;49286;44.460;26.114;2022-12-07T12:32:29;39.15;;;17.25;;
63189;SDS011;49286;44.460;26.114;2022-12-07T12:37:53;32.33;;;15.57;;
63189;SDS011;49286;44.460;26.114;2022-12-07T12:45:28;23.30;;;14.63;;
63189;SDS011;49286;44.460;26.114;2022-12-07T12:50:28;32.28;;;17.65;;
63189;SDS011;49286;44.460;26.114;2022-12-07T12:53:21;29.48;;;18.05;;
63189;SDS011;49286;44.460;26.114;2022-12-07T12:56:11;32.92;;;18.80;;
63189;SDS011;49286;44.460;26.114;2022-12-07T12:58:50;68.07;;;18.90;;
63189;SDS011;49286;44.460;26.114;2022-12-07T13:01:44;33.53;;;18.17;;
63189;SDS011;49286;44.460;26.114;2022-12-07T13:04:21;28.40;;;16.83;;
63189;SDS011;49286;44.460;26.114;2022-12-07T13:06:50;34.47;;;19.08;;
63189;SDS011;49286;44.460;26.114;2022-12-07T13:09:24;38.70;;;16.88;;
63189;SDS011;49286;44.460;26.114;2022-12-07T13:12:03;30.42;;;17.65;;
63189;SDS011;49286;44.460;26.114;2022-12-07T13:19:59;34.60;;;20.05;;
63189;SDS011;49286;44.460;26.114;2022-12-07T13:27:39;39.55;;;19.70;;
63189;SDS011;49286;44.460;26.114;2022-12-07T13:30:12;49.65;;;22.95;;
63189;SDS011;49286;44.460;26.114;2022-12-07T13:32:54;32.13;;;20.05;;
63189;SDS011;49286;44.460;26.114;2022-12-07T13:35:42;38.47;;;19.92;;
63189;SDS011;49286;44.460;26.114;2022-12-07T13:38:23;32.05;;;19.38;;
63189;SDS011;49286;44.460;26.114;2022-12-07T13:43:43;30.65;;;19.05;;
63189;SDS011;49286;44.460;26.114;2022-12-07T13:46:31;40.78;;;22.10;;
63189;SDS011;49286;44.460;26.114;2022-12-07T13:49:24;46.55;;;24.58;;
63189;SDS011;49286;44.460;26.114;2022-12-07T13:51:54;34.85;;;23.05;;
63189;SDS011;49286;44.460;26.114;2022-12-07T13:54:31;38.38;;;20.92;;
63189;SDS011;49286;44.460;26.114;2022-12-07T13:56:57;36.20;;;19.85;;
63189;SDS011;49286;44.460;26.114;2022-12-07T13:59:24;37.33;;;20.25;;
63189;SDS011;49286;44.460;26.114;2022-12-07T14:01:52;35.92;;;21.75;;
63189;SDS011;49286;44.460;26.114;2022-12-07T14:04:34;33.42;;;20.77;;
63189;SDS011;49286;44.460;26.114;2022-12-07T14:07:17;34.53;;;20.50;;
63189;SDS011;49286;44.460;26.114;2022-12-07T14:09:52;37.53;;;20.52;;
63189;SDS011;49286;44.460;26.114;2022-12-07T14:12:30;48.15;;;21.10;;
63189;SDS011;49286;44.460;26.114;2022-12-07T14:14:58;36.08;;;20.80;;
63189;SDS011;49286;44.460;26.114;2022-12-07T14:17:26;48.25;;;22.52;;
63189;SDS011;49286;44.460;26.114;2022-12-07T14:19:53;47.40;;;20.73;;
63189;SDS011;49286;44.460;26.114;2022-12-07T14:25:16;45.40;;;23.95;;
63189;SDS011;49286;44.460;26.114;2022-12-07T14:28:25;41.03;;;23.63;;
63189;SDS011;49286;44.460;26.114;2022-12-07T14:30:50;36.40;;;21.92;;
63189;SDS011;49286;44.460;26.114;2022-12-07T14:33:15;33.33;;;21.20;;
63189;SDS011;49286;44.460;26.114;2022-12-07T14:35:41;51.40;;;23.70;;
63189;SDS011;49286;44.460;26.114;2022-12-07T14:38:07;48.88;;;24.55;;
63189;SDS011;49286;44.460;26.114;2022-12-07T14:40:32;38.72;;;22.60;;
63189;SDS011;49286;44.460;26.114;2022-12-07T14:43:16;32.97;;;20.35;;
63189;SDS011;49286;44.460;26.114;2022-12-07T14:45:43;46.22;;;23.00;;
63189;SDS011;49286;44.460;26.114;2022-12-07T14:48:12;34.50;;;20.83;;
63189;SDS011;49286;44.460;26.114;2022-12-07T14:50:43;74.18;;;22.30;;
63189;SDS011;49286;44.460;26.114;2022-12-07T14:53:12;43.58;;;24.90;;
63189;SDS011;49286;44.460;26.114;2022-12-07T14:55:40;47.53;;;21.83;;
63189;SDS011;49286;44.460;26.114;2022-12-07T14:58:06;49.70;;;24.45;;
63189;SDS011;49286;44.460;26.114;2022-12-07T15:00:33;39.88;;;22.52;;
63189;SDS011;49286;44.460;26.114;2022-12-07T15:02:59;46.28;;;25.13;;
63189;SDS011;49286;44.460;26.114;2022-12-07T15:05:24;35.58;;;23.48;;
63189;SDS011;49286;44.460;26.114;2022-12-07T15:07:50;50.88;;;23.40;;
63189;SDS011;49286;44.460;26.114;2022-12-07T15:10:23;37.90;;;20.92;;
63189;SDS011;49286;44.460;26.114;2022-12-07T15:12:55;45.00;;;23.92;;
63189;SDS011;49286;44.460;26.114;2022-12-07T15:15:41;32.13;;;19.67;;
63189;SDS011;49286;44.460;26.114;2022-12-07T15:18:06;39.67;;;22.58;;
63189;SDS011;49286;44.460;26.114;2022-12-07T15:20:32;41.38;;;23.58;;
63189;SDS011;49286;44.460;26.114;2022-12-07T15:22:57;36.20;;;22.80;;
63189;SDS011;49286;44.460;26.114;2022-12-07T15:25:23;42.08;;;24.05;;
63189;SDS011;49286;44.460;26.114;2022-12-07T15:27:49;42.70;;;26.08;;
63189;SDS011;49286;44.460;26.114;2022-12-07T15:30:14;44.00;;;24.25;;
63189;SDS011;49286;44.460;26.114;2022-12-07T15:32:40;44.95;;;22.15;;
63189;SDS011;49286;44.460;26.114;2022-12-07T15:35:06;33.85;;;23.00;;
63189;SDS011;49286;44.460;26.114;2022-12-07T15:37:32;47.92;;;22.20;;
63189;SDS011;49286;44.460;26.114;2022-12-07T15:39:57;42.83;;;20.05;;
63189;SDS011;49286;44.460;26.114;2022-12-07T15:42:23;37.00;;;21.83;;
63189;SDS011;49286;44.460;26.114;2022-12-07T15:44:48;34.78;;;21.77;;
63189;SDS011;49286;44.460;26.114;2022-12-07T15:47:33;30.73;;;21.08;;
63189;SDS011;49286;44.460;26.114;2022-12-07T15:50:01;33.78;;;18.48;;
63189;SDS011;49286;44.460;26.114;2022-12-07T15:52:29;49.78;;;24.10;;
63189;SDS011;49286;44.460;26.114;2022-12-07T15:54:54;46.10;;;26.42;;
63189;SDS011;49286;44.460;26.114;2022-12-07T15:57:20;54.30;;;29.10;;
63189;SDS011;49286;44.460;26.114;2022-12-07T15:59:46;60.28;;;26.48;;
63189;SDS011;49286;44.460;26.114;2022-12-07T16:02:11;45.25;;;27.90;;
63189;SDS011;49286;44.460;26.114;2022-12-07T16:04:37;58.05;;;29.70;;
63189;SDS011;49286;44.460;26.114;2022-12-07T16:07:03;61.20;;;33.42;;
63189;SDS011;49286;44.460;26.114;2022-12-07T16:09:28;53.00;;;28.42;;
63189;SDS011;49286;44.460;26.114;2022-12-07T16:11:54;49.95;;;30.20;;
63189;SDS011;49286;44.460;26.114;2022-12-07T16:14:20;68.50;;;30.50;;
63189;SDS011;49286;44.460;26.114;2022-12-07T16:16:46;60.72;;;30.85;;
63189;SDS011;49286;44.460;26.114;2022-12-07T16:19:12;41.65;;;27.15;;
63189;SDS011;49286;44.460;26.114;2022-12-07T16:21:37;40.15;;;23.38;;
63189;SDS011;49286;44.460;26.114;2022-12-07T16:24:03;46.08;;;29.25;;
63189;SDS011;49286;44.460;26.114;2022-12-07T16:26:30;54.65;;;30.75;;
63189;SDS011;49286;44.460;26.114;2022-12-07T16:28:56;53.35;;;29.17;;
63189;SDS011;49286;44.460;26.114;2022-12-07T16:31:23;41.42;;;25.50;;
63189;SDS011;49286;44.460;26.114;2022-12-07T16:33:50;73.95;;;30.58;;
63189;SDS011;49286;44.460;26.114;2022-12-07T16:36:18;48.85;;;28.17;;